Time;durP1;ratioP1;P1;durP2;ratioP2;P2;SDS_P1;SDS_P2;PMS_P1;PMS_P2;Temp;Humidity;BMP_temperature;BMP_pressure;BME280_temperature;BME280_humidity;BME280_pressure;Samples;Min_cycle;Max_cycle;Signal;HPM_P1;HPM_P2
2023/02/09 00:01:05;;;;;;;15.10;7.10;;;;;;;-3.82;63.90;103251.84;4973502;28;20536;-81
2023/02/09 00:03:31;;;;;;;17.85;7.65;;;;;;;-4.06;63.91;103214.25;4955021;28;20129;-83
2023/02/09 00:06:00;;;;;;;18.55;7.43;;;;;;;-3.97;64.30;103258.06;4989147;28;20468;-80
2023/02/09 00:08:26;;;;;;;15.15;6.80;;;;;;;-4.00;64.22;103257.16;4972843;28;20478;-80
2023/02/09 00:10:52;;;;;;;19.13;7.40;;;;;;;-4.12;64.76;103261.59;4966723;28;20069;-79
2023/02/09 00:13:23;;;;;;;20.63;7.73;;;;;;;-4.17;65.39;103271.22;4981163;28;20034;-82
2023/02/09 00:15:56;;;;;;;18.60;8.45;;;;;;;-4.35;65.44;103263.38;4991157;28;20395;-81
2023/02/09 00:18:23;;;;;;;19.95;8.07;;;;;;;-4.32;65.49;103263.38;4973206;28;20054;-81
2023/02/09 00:20:55;;;;;;;24.02;8.50;;;;;;;-4.41;65.39;103266.00;4966953;28;20069;-79
2023/02/09 00:23:21;;;;;;;17.10;7.13;;;;;;;-4.30;65.44;103270.38;4969261;28;20165;-81
2023/02/09 00:25:46;;;;;;;15.80;7.22;;;;;;;-4.40;65.42;103273.00;4954612;28;20125;-81
2023/02/09 00:28:12;;;;;;;20.67;8.20;;;;;;;-4.42;65.80;103274.78;4988031;28;20034;-80
2023/02/09 00:30:37;;;;;;;16.87;7.60;;;;;;;-4.46;65.96;103274.75;4972058;28;20113;-81
2023/02/09 00:33:03;;;;;;;21.13;7.93;;;;;;;-4.56;66.20;103275.63;4989148;28;20045;-81
2023/02/09 00:35:28;;;;;;;21.97;8.23;;;;;;;-4.60;66.15;103276.50;4972531;28;20105;-82
2023/02/09 00:37:54;;;;;;;18.40;6.60;;;;;;;-4.62;66.80;103278.25;4988833;28;20286;-81
2023/02/09 00:40:20;;;;;;;17.67;7.43;;;;;;;-4.67;66.43;103277.38;4972566;28;20480;-81
2023/02/09 00:42:46;;;;;;;20.38;6.95;;;;;;;-4.85;66.54;103251.97;4970148;28;20351;-82
2023/02/09 00:45:12;;;;;;;19.98;7.68;;;;;;;-4.77;66.88;103278.25;4972284;28;20034;-81
2023/02/09 00:47:38;;;;;;;17.63;8.02;;;;;;;-4.76;66.59;103272.13;4972208;28;20645;-82
2023/02/09 00:50:07;;;;;;;24.25;8.25;;;;;;;-4.81;66.77;103281.75;4989278;28;20502;-81
2023/02/09 00:52:33;;;;;;;20.40;8.25;;;;;;;-4.88;67.39;103273.84;4989560;28;20038;-81
2023/02/09 00:54:58;;;;;;;16.98;7.22;;;;;;;-5.00;67.60;103259.84;4972946;28;20042;-81
2023/02/09 00:57:27;;;;;;;17.23;7.90;;;;;;;-4.95;67.78;103263.34;4972698;28;20392;-81
2023/02/09 00:59:52;;;;;;;18.90;8.30;;;;;;;-5.05;68.12;103259.84;4960899;28;20070;-81
2023/02/09 01:02:18;;;;;;;18.97;7.67;;;;;;;-4.99;67.97;103272.09;4965294;28;20054;-82
2023/02/09 01:04:43;;;;;;;21.23;8.25;;;;;;;-5.06;68.18;103265.94;4967868;28;20042;-82
2023/02/09 01:07:09;;;;;;;18.23;7.50;;;;;;;-5.08;68.28;103275.59;4975674;28;20038;-81
2023/02/09 01:09:34;;;;;;;19.33;7.57;;;;;;;-5.09;68.55;103277.31;4990055;28;20424;-81
2023/02/09 01:12:01;;;;;;;20.37;8.77;;;;;;;-5.24;68.69;103274.66;4966369;28;20297;-80
2023/02/09 01:14:26;;;;;;;;;;;;;;;-5.18;68.93;103281.66;4987402;28;20037;-81
2023/02/09 01:16:51;;;;;;;;;;;;;;;-5.23;69.43;103272.91;4989163;28;19914;-81
2023/02/09 01:19:17;;;;;;;17.30;6.13;;;;;;;-5.28;69.14;103261.53;4970441;28;19936;-82
2023/02/09 01:21:42;;;;;;;20.20;8.13;;;;;;;-5.34;69.47;103280.72;4987861;28;20034;-81
2023/02/09 01:24:11;;;;;;;15.17;6.90;;;;;;;-5.31;69.05;103273.78;4989375;28;20456;-83
2023/02/09 01:26:36;;;;;;;19.77;7.00;;;;;;;-5.33;69.40;103280.75;4952995;28;20473;-82
2023/02/09 01:29:02;;;;;;;17.30;7.18;;;;;;;-5.31;69.26;103275.53;4955523;28;20141;-81
2023/02/09 01:31:32;;;;;;;26.07;8.83;;;;;;;-5.44;69.52;103295.56;4970673;28;20053;-81
2023/02/09 01:33:58;;;;;;;16.38;7.85;;;;;;;-5.49;69.30;103291.19;4966591;28;20416;-81
2023/02/09 01:36:24;;;;;;;;;;;;;;;-5.49;69.44;103307.78;4971476;28;20129;-81
2023/02/09 01:38:49;;;;;;;;;;;;;;;-5.58;69.79;103305.13;4971183;28;20298;-81
2023/02/09 01:41:15;;;;;;;15.33;6.33;;;;;;;-5.62;69.96;103296.38;4988322;28;19913;-82
2023/02/09 01:43:54;;;;;;;17.48;7.70;;;;;;;-5.72;70.00;103300.66;4970894;28;20144;-80
2023/02/09 01:46:20;;;;;;;16.17;6.63;;;;;;;-5.75;70.29;103298.03;4968713;28;20046;-83
2023/02/09 01:48:45;;;;;;;18.00;7.47;;;;;;;-5.87;70.56;103295.38;4946907;28;20070;-83
2023/02/09 01:51:11;;;;;;;19.90;8.02;;;;;;;-5.79;70.38;103321.59;4972829;28;20534;-80
2023/02/09 01:53:36;;;;;;;23.90;9.30;;;;;;;-5.79;70.30;103316.34;4994754;28;20046;-80
2023/02/09 01:56:11;;;;;;;24.48;8.45;;;;;;;-5.91;70.72;103308.44;4975929;28;20046;-81
2023/02/09 01:58:37;;;;;;;22.45;8.20;;;;;;;-5.89;70.89;103317.19;4975370;28;20503;-81
2023/02/09 02:01:02;;;;;;;21.40;8.85;;;;;;;-5.96;71.11;103321.53;4976150;28;20138;-79
2023/02/09 02:03:28;;;;;;;20.10;7.40;;;;;;;-6.02;70.83;103316.25;4992474;28;20039;-79
2023/02/09 02:06:00;;;;;;;24.60;8.20;;;;;;;-5.99;71.26;103321.53;4993601;28;20031;-82
2023/02/09 02:08:34;;;;;;;26.95;9.40;;;;;;;-6.01;71.08;103328.50;4975608;28;20786;-82
2023/02/09 02:11:00;;;;;;;19.25;8.88;;;;;;;-6.09;71.13;103317.06;4962277;28;20450;-80
2023/02/09 02:13:25;;;;;;;17.80;8.77;;;;;;;-6.17;71.61;103315.28;4957462;28;20073;-80
2023/02/09 02:15:59;;;;;;;18.47;8.53;;;;;;;-6.19;71.53;103324.84;4994252;28;20038;-81
2023/02/09 02:18:34;;;;;;;28.25;10.13;;;;;;;-6.29;72.04;103322.19;4970924;28;20079;-81
2023/02/09 02:21:08;;;;;;;19.27;7.97;;;;;;;-6.22;71.82;103324.84;4993878;28;20134;-81
2023/02/09 02:23:37;;;;;;;24.80;9.27;;;;;;;-6.28;71.87;103330.03;4978439;28;20403;-82
2023/02/09 02:26:14;;;;;;;19.95;8.40;;;;;;;-6.39;71.70;103318.63;4994088;28;20137;-82
2023/02/09 02:29:03;;;;;;;23.98;9.38;;;;;;;-6.47;71.96;103322.88;4976022;28;20112;-82
2023/02/09 02:31:57;;;;;;;23.60;9.02;;;;;;;-6.46;71.98;103325.53;4974607;28;20050;-82
2023/02/09 02:35:00;;;;;;;20.10;8.77;;;;;;;-6.53;72.51;103330.69;4977059;28;20054;-80
2023/02/09 02:37:31;;;;;;;19.95;7.93;;;;;;;-6.55;72.33;103346.38;4891923;29;20558;-81
2023/02/09 02:40:12;;;;;;;21.70;8.50;;;;;;;-6.55;71.91;103333.31;4973234;28;20055;-81
2023/02/09 02:42:58;;;;;;;22.38;8.50;;;;;;;-6.62;72.40;103342.84;4980574;28;20495;-81
2023/02/09 02:45:46;;;;;;;18.20;6.95;;;;;;;-6.64;72.05;103347.16;4985586;28;20050;-83
2023/02/09 02:48:12;;;;;;;19.92;8.70;;;;;;;-6.71;72.30;103345.34;4974013;28;20584;-82
2023/02/09 02:50:40;;;;;;;20.27;8.40;;;;;;;-6.83;72.86;103353.09;4990568;28;20034;-79
2023/02/09 02:53:06;;;;;;;20.52;8.40;;;;;;;-6.92;73.01;103345.13;4991018;28;20129;-80
2023/02/09 02:55:31;;;;;;;21.38;8.38;;;;;;;-6.99;73.16;103325.88;4956912;28;20089;-81
2023/02/09 02:57:59;;;;;;;20.60;8.70;;;;;;;-6.99;73.16;103338.09;4937011;28;20832;-82
2023/02/09 03:00:31;;;;;;;23.63;8.90;;;;;;;-6.99;73.38;103338.09;4971937;28;20483;-83
2023/02/09 03:02:59;;;;;;;19.13;8.48;;;;;;;-7.07;73.76;103346.72;4955505;28;20034;-82
2023/02/09 03:05:24;;;;;;;22.67;8.25;;;;;;;-7.04;73.50;103341.50;4987837;28;20054;-81
2023/02/09 03:07:51;;;;;;;21.25;8.43;;;;;;;-7.04;73.41;103344.13;4950849;28;20034;-82
2023/02/09 03:10:33;;;;;;;26.75;9.65;;;;;;;-7.07;73.60;103341.50;4989453;28;20428;-81
2023/02/09 03:13:23;;;;;;;20.08;7.47;;;;;;;-7.01;73.55;103336.31;4973837;28;20151;-79
2023/02/09 03:16:01;;;;;;;20.27;7.90;;;;;;;-7.06;73.64;103331.91;4989299;28;20494;-80
2023/02/09 03:18:44;;;;;;;26.55;10.18;;;;;;;-7.07;73.75;103340.59;4990863;28;20035;-81
2023/02/09 03:21:16;;;;;;;26.55;9.23;;;;;;;-7.10;74.50;103327.50;4988508;28;20046;-79
2023/02/09 03:24:06;;;;;;;19.02;7.25;;;;;;;-7.16;74.19;103325.69;4952258;28;20550;-82
2023/02/09 03:27:00;;;;;;;15.02;6.85;;;;;;;-7.09;73.88;103324.91;4972797;28;20070;-82
2023/02/09 03:29:26;;;;;;;23.35;8.57;;;;;;;-7.11;73.70;103321.38;4971248;28;20058;-80
2023/02/09 03:31:51;;;;;;;21.47;8.53;;;;;;;-7.04;74.01;103331.06;4971849;28;20605;-83
2023/02/09 03:34:17;;;;;;;19.00;8.57;;;;;;;-7.03;74.38;103340.63;4956141;28;20129;-83
2023/02/09 03:36:43;;;;;;;33.75;11.15;;;;;;;-6.96;74.32;103327.66;4958045;28;20038;-81
2023/02/09 03:39:08;;;;;;;;;;;;;;;-6.99;74.05;103322.38;4954245;28;20144;-81
2023/02/09 03:41:36;;;;;;;15.50;6.15;;;;;;;-7.05;74.11;103328.41;4987999;28;19965;-83
2023/02/09 03:46:46;;;;;;;20.48;7.72;;;;;;;-7.08;74.25;103318.81;4972147;28;20133;-83
2023/02/09 03:49:13;;;;;;;19.37;8.67;;;;;;;-7.01;74.55;103325.84;4971993;28;20038;-81
2023/02/09 03:51:40;;;;;;;16.08;6.60;;;;;;;-6.94;74.45;103320.69;4939521;28;20053;-80
2023/02/09 03:54:05;;;;;;;15.90;6.68;;;;;;;-6.96;74.31;103323.28;4970299;28;20054;-81
2023/02/09 03:56:31;;;;;;;17.20;7.07;;;;;;;-7.07;74.64;103302.25;4938268;28;1166297;-81
2023/02/09 03:58:56;;;;;;;22.00;8.25;;;;;;;-7.01;74.68;103304.94;4970016;28;20041;-83
2023/02/09 04:01:22;;;;;;;18.40;7.97;;;;;;;-6.97;74.79;103305.84;4953017;28;20129;-83
2023/02/09 04:03:48;;;;;;;20.53;8.37;;;;;;;-6.99;74.83;103322.38;4954123;28;20039;-82
2023/02/09 04:06:13;;;;;;;17.67;7.25;;;;;;;-6.96;74.90;103335.50;4957898;28;20301;-84
2023/02/09 04:08:41;;;;;;;20.27;7.43;;;;;;;-6.99;74.68;103322.38;4953250;28;20034;-81
2023/02/09 04:11:07;;;;;;;21.15;8.07;;;;;;;-6.95;75.05;103326.78;4942631;28;20043;-81
2023/02/09 04:13:33;;;;;;;23.90;9.82;;;;;;;-6.93;74.96;103327.66;4956458;28;20141;-82
2023/02/09 04:15:58;;;;;;;18.63;8.50;;;;;;;-6.91;75.02;103328.56;4947980;28;20058;-83
2023/02/09 04:18:24;;;;;;;18.70;7.90;;;;;;;-6.95;75.25;103319.81;4964001;28;20041;-84
2023/02/09 04:20:51;;;;;;;18.00;6.97;;;;;;;-6.77;74.91;103337.44;4976073;28;20706;-81
2023/02/09 04:23:17;;;;;;;25.58;9.02;;;;;;;-6.81;75.62;103333.91;4955819;28;20035;-82
2023/02/09 04:25:43;;;;;;;23.75;8.88;;;;;;;-6.80;75.22;103329.56;4963631;28;20517;-82
2023/02/09 04:28:09;;;;;;;15.73;6.68;;;;;;;-6.75;75.17;103338.31;4971236;28;20066;-82
2023/02/09 04:30:36;;;;;;;22.10;7.88;;;;;;;-6.74;75.80;103336.59;4958280;28;20097;-80
2023/02/09 04:33:02;;;;;;;23.35;9.27;;;;;;;-6.74;75.96;103333.97;4967171;28;20060;-83
2023/02/09 04:35:27;;;;;;;25.13;9.10;;;;;;;-6.69;76.07;103348.88;4974428;28;20039;-81
2023/02/09 04:37:53;;;;;;;20.50;7.60;;;;;;;-6.63;76.29;103343.66;4954493;28;20282;-82
2023/02/09 04:40:18;;;;;;;23.00;8.10;;;;;;;-6.52;76.16;103350.78;4955307;28;20061;-81
2023/02/09 04:42:45;;;;;;;24.27;8.80;;;;;;;-6.50;76.21;103341.19;4918164;29;20042;-82
2023/02/09 04:45:10;;;;;;;;;;;;;;;-6.42;75.97;103342.13;4935289;28;20097;-81
2023/02/09 04:47:35;;;;;;;19.25;8.88;;;;;;;-6.49;76.41;103345.56;4968623;28;20329;-82
2023/02/09 04:50:01;;;;;;;23.17;9.93;;;;;;;-6.40;76.66;103343.03;4968121;28;20031;-82
2023/02/09 04:52:27;;;;;;;25.27;9.00;;;;;;;-6.34;76.66;103335.22;4953182;28;20758;-82
2023/02/09 04:54:53;;;;;;;28.23;10.00;;;;;;;-6.34;76.09;103344.81;4938277;28;20113;-83
2023/02/09 05:00:04;;;;;;;22.10;9.07;;;;;;;-6.27;76.42;103339.66;4968898;28;20920;-81
2023/02/09 05:02:30;;;;;;;30.35;10.25;;;;;;;-6.26;76.53;103343.13;4968073;28;20042;-80
2023/02/09 05:04:55;;;;;;;26.63;10.27;;;;;;;-6.25;76.64;103350.13;4969478;28;20050;-82
2023/02/09 05:07:22;;;;;;;27.73;9.90;;;;;;;-6.28;76.92;103318.69;4949392;28;20039;-81
2023/02/09 05:09:47;;;;;;;27.27;9.65;;;;;;;-6.06;76.65;103351.16;4967534;28;20386;-81
2023/02/09 05:12:14;;;;;;;28.77;10.80;;;;;;;-6.15;76.62;103351.97;4946550;28;20043;-82
2023/02/09 05:14:40;;;;;;;22.35;9.35;;;;;;;-5.95;76.39;103355.63;4951570;28;20065;-80
2023/02/09 05:17:05;;;;;;;23.03;10.33;;;;;;;-5.99;76.53;103358.19;4969167;28;20510;-83
2023/02/09 05:19:30;;;;;;;26.50;9.57;;;;;;;-5.94;76.52;103359.09;4965236;28;20066;-82
2023/02/09 05:21:56;;;;;;;26.00;10.40;;;;;;;-5.84;76.51;103354.75;4951770;28;20041;-84
2023/02/09 05:24:21;;;;;;;25.85;10.13;;;;;;;-5.82;75.48;103355.66;4952563;28;20305;-84
2023/02/09 05:26:47;;;;;;;28.27;11.57;;;;;;;-5.84;75.76;103358.25;4968088;28;20031;-82
2023/02/09 05:29:12;;;;;;;30.23;9.93;;;;;;;-5.80;75.24;103352.19;4969055;28;20043;-86
2023/02/09 05:31:41;;;;;;;29.07;10.87;;;;;;;-5.84;75.52;103366.13;4954012;28;20286;-83
2023/02/09 05:34:06;;;;;;;29.38;10.50;;;;;;;-5.77;75.69;103349.56;4968228;28;20133;-84
2023/02/09 05:36:32;;;;;;;27.37;11.03;;;;;;;-5.63;75.27;103356.66;4966924;28;20041;-85
2023/02/09 05:38:57;;;;;;;26.73;10.93;;;;;;;-5.77;75.80;103365.28;4967446;28;20043;-85
2023/02/09 05:44:08;;;;;;;23.70;9.27;;;;;;;-5.56;75.19;103358.44;4972004;28;20058;-85
2023/02/09 05:46:34;;;;;;;26.55;10.38;;;;;;;-5.64;75.29;103347.00;4971957;28;20144;-85
2023/02/09 05:48:59;;;;;;;28.73;10.67;;;;;;;-5.62;75.50;103347.91;4970581;28;20035;-84
2023/02/09 05:51:27;;;;;;;31.50;11.03;;;;;;;-5.59;74.76;103342.69;4980928;28;20078;-84
2023/02/09 05:53:52;;;;;;;27.02;10.70;;;;;;;-5.40;74.86;103346.28;4969020;28;20046;-84
2023/02/09 05:56:18;;;;;;;23.85;9.88;;;;;;;-4.62;72.19;103341.25;4956073;28;20533;-84
2023/02/09 05:58:46;;;;;;;23.40;10.20;;;;;;;-4.32;70.12;103313.28;4993550;28;20106;-84
2023/02/09 06:01:13;;;;;;;29.85;10.60;;;;;;;-4.17;69.65;103342.16;4956452;28;20190;-87
2023/02/09 06:03:38;;;;;;;23.45;9.60;;;;;;;-4.14;69.54;103334.28;4980074;28;20113;-84
2023/02/09 06:06:04;;;;;;;22.33;9.07;;;;;;;-4.29;69.59;103313.28;4955210;28;20442;-84
2023/02/09 06:08:29;;;;;;;19.80;8.35;;;;;;;-3.90;68.36;103325.50;4970308;28;20286;-83
2023/02/09 06:10:55;;;;;;;19.50;8.57;;;;;;;-3.91;68.25;103328.13;4966518;28;20087;-82
2023/02/09 06:13:22;;;;;;;20.85;8.60;;;;;;;-3.76;68.25;103330.72;4964031;28;20376;-81
2023/02/09 06:15:48;;;;;;;21.95;8.30;;;;;;;-3.82;67.96;103318.47;4988448;28;20042;-80
2023/02/09 06:18:13;;;;;;;19.85;8.75;;;;;;;-3.56;68.21;103325.41;4970429;28;20349;-83
2023/02/09 06:20:39;;;;;;;24.83;9.63;;;;;;;-3.16;66.57;103317.38;4973646;28;20475;-79
2023/02/09 06:23:04;;;;;;;17.70;8.03;;;;;;;-2.92;66.25;103318.97;4987646;28;20065;-82
2023/02/09 06:25:30;;;;;;;24.00;8.50;;;;;;;-2.98;65.63;103324.28;4958339;28;20038;-82
2023/02/09 06:27:55;;;;;;;20.02;8.07;;;;;;;-3.11;65.95;103302.41;4991930;28;20042;-80
2023/02/09 06:30:24;;;;;;;21.47;8.07;;;;;;;-2.95;65.76;103304.94;4976028;28;20049;-85
2023/02/09 06:32:50;;;;;;;18.90;8.32;;;;;;;-2.83;65.15;103295.22;4959408;28;20391;-84
2023/02/09 06:35:15;;;;;;;22.17;8.73;;;;;;;-2.57;64.69;103307.34;4973281;28;20042;-84
2023/02/09 06:37:43;;;;;;;18.25;7.32;;;;;;;-2.67;64.39;103292.47;4963778;28;20125;-86
2023/02/09 06:40:08;;;;;;;16.10;6.55;;;;;;;-2.79;64.47;103296.97;4943341;28;20082;-86
2023/02/09 06:42:45;;;;;;;17.98;7.63;;;;;;;-2.93;64.90;103293.53;4988717;28;20035;-86
2023/02/09 06:45:18;;;;;;;25.35;8.35;;;;;;;-2.84;65.23;103311.03;4999315;28;20042;-85
2023/02/09 06:48:06;;;;;;;21.90;7.40;;;;;;;-2.70;64.51;103281.97;4978067;28;20054;-84
2023/02/09 06:50:38;;;;;;;20.95;7.50;;;;;;;-2.17;63.07;103301.75;4975469;28;20054;-85
2023/02/09 06:53:04;;;;;;;16.30;7.05;;;;;;;-2.29;62.16;103257.06;5002730;28;20034;-84
2023/02/09 06:55:32;;;;;;;17.17;7.25;;;;;;;-2.18;61.59;103279.78;4945646;28;20560;-81
2023/02/09 06:57:59;;;;;;;20.23;8.80;;;;;;;-1.85;60.90;103279.44;4993010;28;20654;-87
2023/02/09 07:00:24;;;;;;;20.65;8.18;;;;;;;-1.46;59.48;103274.59;4989794;28;20038;-81
2023/02/09 07:02:50;;;;;;;22.83;8.85;;;;;;;-1.75;59.83;103294.28;4976587;28;20057;-86
2023/02/09 07:05:16;;;;;;;24.75;9.23;;;;;;;-2.20;61.06;103292.09;4972239;28;20030;-83
2023/02/09 07:07:41;;;;;;;20.25;8.68;;;;;;;-2.63;62.04;103297.72;4988790;28;20096;-85
2023/02/09 07:10:08;;;;;;;21.85;9.68;;;;;;;-1.95;60.98;103303.25;4950654;28;20039;-85
2023/02/09 07:12:33;;;;;;;21.83;9.18;;;;;;;-1.60;59.69;103314.31;4954330;28;20462;-79
2023/02/09 07:14:59;;;;;;;25.50;9.23;;;;;;;-1.95;60.05;103299.75;4971261;28;20038;-80
2023/02/09 07:17:27;;;;;;;23.58;8.98;;;;;;;-1.19;58.87;103321.75;4974683;28;20280;-79
2023/02/09 07:19:53;;;;;;;20.65;8.82;;;;;;;0.11;55.69;103326.75;4974300;28;20455;-83
2023/02/09 07:22:18;;;;;;;24.30;8.63;;;;;;;1.18;51.98;103306.91;4974962;28;20035;-80
2023/02/09 07:24:44;;;;;;;24.37;9.93;;;;;;;2.38;49.66;103319.75;4992848;28;20101;-84
2023/02/09 07:27:09;;;;;;;20.43;9.60;;;;;;;3.15;47.00;103311.25;4959849;28;20308;-86
2023/02/09 07:29:36;;;;;;;27.87;10.37;;;;;;;4.04;44.86;103317.22;4947473;28;20046;-83
2023/02/09 07:32:03;;;;;;;24.60;10.75;;;;;;;5.60;42.25;103318.41;4971107;28;20266;-82
2023/02/09 07:34:29;;;;;;;20.23;10.00;;;;;;;6.60;38.63;103319.41;4941860;28;20046;-84
2023/02/09 07:36:57;;;;;;;23.50;11.10;;;;;;;7.11;36.71;103325.94;4953061;28;20042;-82
2023/02/09 07:39:23;;;;;;;20.83;11.23;;;;;;;7.18;35.83;103324.69;4974277;28;20282;-83
2023/02/09 07:41:50;;;;;;;25.70;11.35;;;;;;;7.60;35.81;103316.38;4957603;28;20038;-80
2023/02/09 07:44:16;;;;;;;23.58;11.38;;;;;;;8.19;34.24;103316.97;4946143;28;20030;-82
2023/02/09 07:46:43;;;;;;;32.95;11.73;;;;;;;8.44;33.46;103329.06;4953965;28;20453;-82
2023/02/09 07:49:10;;;;;;;;;;;;;;;8.05;34.24;103330.19;4974413;28;20183;-83
2023/02/09 07:51:36;;;;;;;29.83;11.82;;;;;;;7.87;33.87;103304.38;4992236;28;19936;-80
2023/02/09 07:54:04;;;;;;;22.02;11.65;;;;;;;7.83;32.99;103291.09;4937947;28;20054;-80
2023/02/09 07:56:30;;;;;;;24.65;11.73;;;;;;;6.98;34.20;103302.47;4956718;28;20053;-81
2023/02/09 07:58:57;;;;;;;28.08;12.20;;;;;;;6.66;35.53;103300.44;4973576;28;20125;-82
2023/02/09 08:01:24;;;;;;;25.38;12.55;;;;;;;7.36;34.16;103307.75;4947064;28;20074;-80
2023/02/09 08:03:55;;;;;;;26.58;12.73;;;;;;;6.86;34.61;103297.69;4954095;28;20437;-80
2023/02/09 08:06:26;;;;;;;26.67;12.02;;;;;;;6.13;36.23;103313.47;4984367;28;20049;-79
2023/02/09 08:08:52;;;;;;;27.05;12.55;;;;;;;5.42;37.54;103336.03;4969014;28;20073;-79
2023/02/09 08:11:24;;;;;;;25.88;12.05;;;;;;;4.74;38.86;103317.31;4968906;28;20061;-78
2023/02/09 08:13:50;;;;;;;25.20;12.25;;;;;;;5.08;38.18;103330.22;4964236;28;20129;-80
2023/02/09 08:16:17;;;;;;;25.38;12.23;;;;;;;4.54;39.32;103335.84;4972574;28;20057;-79
2023/02/09 08:18:48;;;;;;;31.73;12.93;;;;;;;4.68;38.80;103346.84;4986800;28;20491;-81
2023/02/09 08:21:14;;;;;;;30.65;12.38;;;;;;;4.48;39.39;103341.41;4939482;28;20044;-78
2023/02/09 08:23:40;;;;;;;;;;;;;;;5.20;37.84;103350.22;4966572;28;20042;-78
2023/02/09 08:26:06;;;;;;;;;;;;;;;5.64;37.45;103350.22;4971695;28;19925;-79
2023/02/09 08:28:32;;;;;;;33.17;12.95;;;;;;;6.86;36.50;103337.81;4947075;28;19969;-79
2023/02/09 08:30:58;;;;;;;33.10;13.82;;;;;;;7.66;33.67;103342.00;4972858;28;20061;-81
2023/02/09 08:33:23;;;;;;;27.67;12.63;;;;;;;7.79;33.18;103353.81;4947434;28;20038;-83
2023/02/09 08:35:51;;;;;;;35.75;13.93;;;;;;;8.13;33.40;103349.44;4980998;28;20038;-85
2023/02/09 08:38:17;;;;;;;40.25;13.57;;;;;;;9.18;30.97;103325.06;4968821;28;20121;-84
2023/02/09 08:40:44;;;;;;;30.52;13.00;;;;;;;10.69;29.54;103350.06;4976300;28;20129;-86
2023/02/09 08:43:11;;;;;;;27.60;14.10;;;;;;;11.59;28.63;103348.78;4957169;28;20122;-84
2023/02/09 08:45:38;;;;;;;24.92;14.52;;;;;;;11.78;27.67;103345.69;4991481;28;20117;-85
2023/02/09 08:48:10;;;;;;;27.60;15.07;;;;;;;10.83;28.22;103351.03;4941377;28;20042;-83
2023/02/09 08:50:37;;;;;;;36.58;17.63;;;;;;;10.42;28.27;103357.16;4962101;28;20069;-81
2023/02/09 08:53:05;;;;;;;29.92;14.23;;;;;;;9.99;28.66;103349.84;4953988;28;20108;-82
2023/02/09 08:55:31;;;;;;;35.72;15.52;;;;;;;9.33;29.91;103334.91;4967496;28;20066;-82
2023/02/09 08:57:58;;;;;;;25.40;14.73;;;;;;;9.70;29.64;103354.28;4956097;28;20484;-80
2023/02/09 09:00:24;;;;;;;31.33;15.32;;;;;;;8.68;30.72;103351.03;4953447;28;20046;-80
2023/02/09 09:02:50;;;;;;;32.58;15.27;;;;;;;9.91;29.90;103342.25;4949524;28;20099;-85
2023/02/09 09:05:15;;;;;;;23.65;13.18;;;;;;;10.98;28.55;103358.16;4936476;28;20031;-80
2023/02/09 09:07:42;;;;;;;27.05;14.25;;;;;;;10.97;27.62;103345.66;4952543;28;20062;-82
2023/02/09 09:10:08;;;;;;;26.17;13.07;;;;;;;12.28;27.35;103337.84;4936461;28;20057;-80
2023/02/09 09:12:35;;;;;;;25.13;13.30;;;;;;;13.49;25.72;103320.13;4969845;28;20038;-83
2023/02/09 09:15:01;;;;;;;27.65;13.93;;;;;;;15.16;23.79;103331.34;4970253;28;20069;-84
2023/02/09 09:17:28;;;;;;;;;;;;;;;15.48;22.80;103329.69;4952283;28;20038;-81
2023/02/09 09:19:55;;;;;;;29.30;13.75;;;;;;;16.86;21.31;103306.91;4970360;28;20551;-81
2023/02/09 09:22:24;;;;;;;30.50;14.80;;;;;;;17.11;21.71;103315.53;4951054;28;20049;-81
2023/02/09 09:24:54;;;;;;;23.05;13.05;;;;;;;16.92;21.15;103311.75;4954344;28;20416;-80
2023/02/09 09:27:19;;;;;;;22.48;12.98;;;;;;;17.30;21.27;103307.41;4954717;28;20439;-80
2023/02/09 09:29:44;;;;;;;;;;;;;;;17.49;21.00;103309.31;4949238;28;20039;-77
2023/02/09 09:32:13;;;;;;;18.75;11.57;;;;;;;17.79;20.19;103321.88;4963664;28;19921;-79
2023/02/09 09:34:39;;;;;;;19.80;11.82;;;;;;;16.22;21.75;103307.97;4964049;28;20035;-78
2023/02/09 09:37:04;;;;;;;;;;;;;;;17.25;21.04;103306.97;4970278;28;20054;-78
2023/02/09 09:39:30;;;;;;;17.80;11.15;;;;;;;14.67;22.43;103302.84;4952038;28;19914;-76
2023/02/09 09:41:58;;;;;;;;;;;;;;;13.53;24.50;103294.56;4962391;28;20035;-80
2023/02/09 09:44:37;;;;;;;25.08;12.00;;;;;;;11.94;26.68;103301.53;4969726;28;19910;-78
2023/02/09 09:47:11;;;;;;;19.55;11.23;;;;;;;9.97;28.77;103307.91;4971982;28;20125;-81
2023/02/09 09:49:38;;;;;;;24.33;12.98;;;;;;;8.14;32.31;103307.41;4932030;28;20337;-81
2023/02/09 09:52:15;;;;;;;23.20;12.68;;;;;;;7.23;34.50;103308.44;4947881;28;20061;-79
2023/02/09 09:54:41;;;;;;;25.05;11.07;;;;;;;6.28;35.21;103305.72;4933985;28;20042;-84
2023/02/09 09:57:17;;;;;;;;;;;;;;;5.79;36.87;103307.81;4966444;28;20047;-81
2023/02/09 09:59:42;;;;;;;;;;;;;;;4.93;38.53;103308.63;4969062;28;19922;-82
2023/02/09 10:02:22;;;;;;;21.95;11.00;;;;;;;4.25;39.76;103273.84;4969490;28;20146;-81
2023/02/09 10:04:48;;;;;;;27.63;11.43;;;;;;;4.57;39.67;103296.66;4953508;28;20526;-82
2023/02/09 10:07:16;;;;;;;22.25;10.63;;;;;;;3.83;41.01;103285.09;4960677;28;20493;-81
2023/02/09 10:09:55;;;;;;;25.63;11.48;;;;;;;3.14;42.75;103288.25;4972743;28;20180;-80
2023/02/09 10:12:35;;;;;;;21.50;10.73;;;;;;;2.55;44.15;103269.69;4970061;28;20441;-80
2023/02/09 10:15:33;;;;;;;24.38;10.45;;;;;;;2.52;45.14;103299.00;4958359;28;20070;-82
2023/02/09 10:18:01;;;;;;;23.88;10.68;;;;;;;2.38;45.45;103283.47;4974535;28;20077;-84
2023/02/09 10:20:50;;;;;;;21.85;9.07;;;;;;;2.46;45.07;103288.56;4971808;28;20069;-86
2023/02/09 10:23:23;;;;;;;22.58;9.60;;;;;;;2.71;44.92;103278.06;4959609;28;20128;-79
2023/02/09 10:26:02;;;;;;;20.92;10.05;;;;;;;3.67;43.38;103278.56;4971075;28;20046;-81
2023/02/09 10:28:33;;;;;;;22.42;9.98;;;;;;;3.20;43.98;103273.03;4973990;28;20035;-80
2023/02/09 10:31:00;;;;;;;21.15;10.20;;;;;;;3.24;44.29;103272.03;4964156;28;20057;-79
2023/02/09 10:33:27;;;;;;;19.70;10.32;;;;;;;3.30;43.25;103235.47;4964793;28;20133;-79
2023/02/09 10:35:57;;;;;;;18.25;9.90;;;;;;;2.78;44.47;103260.16;4964358;28;20047;-81
2023/02/09 10:38:30;;;;;;;18.85;9.68;;;;;;;4.92;41.04;103275.78;4924821;28;20448;-82
2023/02/09 10:40:57;;;;;;;23.50;10.65;;;;;;;4.81;40.82;103249.53;4957444;28;20046;-79
2023/02/09 10:43:32;;;;;;;20.83;10.00;;;;;;;7.32;36.47;103266.03;4951628;28;20089;-81
2023/02/09 10:46:10;;;;;;;27.42;10.48;;;;;;;8.24;34.05;103258.63;4969350;28;20452;-83
2023/02/09 10:48:44;;;;;;;19.02;10.00;;;;;;;9.40;31.75;103263.78;4971665;28;20063;-79
2023/02/09 10:51:14;;;;;;;20.48;10.73;;;;;;;11.34;29.66;103263.31;4941222;28;20039;-84
2023/02/09 10:53:57;;;;;;;23.98;11.60;;;;;;;11.65;28.66;103263.09;4955289;28;20038;-78
2023/02/09 10:56:40;;;;;;;20.48;11.90;;;;;;;12.93;26.97;103268.47;4945182;28;20051;-79
2023/02/09 10:59:24;;;;;;;20.60;11.73;;;;;;;13.37;25.78;103257.06;4969281;28;20030;-79
2023/02/09 11:01:57;;;;;;;23.45;12.70;;;;;;;14.82;24.01;103262.84;4973323;28;20125;-81
2023/02/09 11:04:24;;;;;;;21.77;12.30;;;;;;;14.79;24.14;103241.41;4954305;28;20056;-80
2023/02/09 11:07:01;;;;;;;19.45;11.32;;;;;;;15.82;22.34;103258.03;4955805;28;20463;-81
2023/02/09 11:09:29;;;;;;;20.88;12.65;;;;;;;15.59;22.92;103251.88;4960191;28;20038;-82
2023/02/09 11:11:55;;;;;;;22.38;13.07;;;;;;;13.23;25.15;103249.97;4954616;28;20050;-80
2023/02/09 11:14:20;;;;;;;23.13;12.85;;;;;;;12.97;25.91;103260.03;4954932;28;20126;-81
2023/02/09 11:17:01;;;;;;;21.55;11.68;;;;;;;13.14;25.67;103264.16;4951840;28;20142;-82
2023/02/09 11:19:55;;;;;;;17.40;10.30;;;;;;;11.50;27.06;103265.88;4968404;28;20050;-83
2023/02/09 11:22:26;;;;;;;23.17;10.85;;;;;;;9.65;29.71;103265.03;4971356;28;20035;-82
2023/02/09 11:25:08;;;;;;;22.55;10.82;;;;;;;8.99;31.13;103250.94;4968847;28;20094;-80
2023/02/09 11:27:58;;;;;;;22.60;12.32;;;;;;;8.97;31.94;103260.91;4968867;28;20027;-82
2023/02/09 11:30:37;;;;;;;19.90;10.85;;;;;;;9.25;31.63;103270.91;4954918;28;20053;-79
2023/02/09 11:33:39;;;;;;;24.65;10.95;;;;;;;8.79;31.77;103259.25;4973209;28;20066;-80
2023/02/09 11:36:14;;;;;;;20.48;10.20;;;;;;;8.50;32.61;103269.78;4965989;28;20391;-84